Time;durP1;ratioP1;P1;durP2;ratioP2;P2;SDS_P1;SDS_P2;PMS_P1;PMS_P2;Temp;Humidity;BMP_temperature;BMP_pressure;BME280_temperature;BME280_humidity;BME280_pressure;Samples;Min_cycle;Max_cycle;Signal;HPM_P1;HPM_P2
2024/04/01 00:00:40;;;;;;;9.80;4.22;;;;;;;-144.12;100.00;72078.50;5028562;28;20514;-68
2024/04/01 00:03:05;;;;;;;7.75;4.25;;;;;;;-144.12;100.00;72078.50;5022900;28;20029;-68
2024/04/01 00:05:32;;;;;;;9.93;4.63;;;;;;;-144.12;100.00;72078.50;5026216;28;20553;-68
2024/04/01 00:07:57;;;;;;;8.38;4.82;;;;;;;-144.12;100.00;72078.50;5043745;28;20029;-68
2024/04/01 00:10:26;;;;;;;12.93;4.88;;;;;;;-144.12;100.00;72078.50;5028594;28;20030;-68
2024/04/01 00:12:57;;;;;;;9.05;4.63;;;;;;;-144.12;100.00;72078.50;5026102;28;20513;-68
2024/04/01 00:15:23;;;;;;;;;;;;;;;-144.12;100.00;72078.50;5043842;28;20702;-68
2024/04/01 00:17:48;;;;;;;8.65;3.80;;;;;;;-144.12;100.00;72078.50;5027819;28;20060;-68
2024/04/01 00:20:14;;;;;;;8.15;4.10;;;;;;;-144.12;100.00;72078.50;5027266;28;20091;-68
2024/04/01 00:22:39;;;;;;;9.68;4.20;;;;;;;-144.12;100.00;72078.50;5033501;28;20037;-68
2024/04/01 00:25:05;;;;;;;8.80;4.35;;;;;;;-144.12;100.00;72078.50;5012207;28;20036;-68
2024/04/01 00:27:31;;;;;;;14.48;4.20;;;;;;;-144.12;100.00;72078.50;5030031;28;20040;-68
2024/04/01 00:30:03;;;;;;;8.18;4.30;;;;;;;-144.12;100.00;72078.50;5034869;28;20486;-68
2024/04/01 00:32:28;;;;;;;8.95;4.43;;;;;;;-144.12;100.00;72078.50;5033239;28;20021;-67
2024/04/01 00:34:54;;;;;;;6.07;4.00;;;;;;;-144.12;100.00;72078.50;5035262;28;20029;-67
2024/04/01 00:37:19;;;;;;;9.88;4.63;;;;;;;-144.12;100.00;72078.50;5031143;28;20049;-69
2024/04/01 00:39:45;;;;;;;10.68;5.05;;;;;;;-144.12;100.00;72078.50;5067776;28;20025;-68
2024/04/01 00:42:10;;;;;;;7.55;3.97;;;;;;;-144.12;100.00;72078.50;5036811;28;20033;-68
2024/04/01 00:44:36;;;;;;;9.20;4.20;;;;;;;-144.12;100.00;72078.50;5034797;28;20091;-69
2024/04/01 00:47:01;;;;;;;11.80;4.72;;;;;;;-144.12;100.00;72078.50;5031511;28;20037;-68
2024/04/01 00:49:27;;;;;;;13.02;5.28;;;;;;;-144.12;100.00;72078.50;5034755;28;20044;-68
2024/04/01 00:51:53;;;;;;;10.07;4.35;;;;;;;-144.12;100.00;72078.50;5002571;28;20021;-68
2024/04/01 00:54:19;;;;;;;9.68;4.80;;;;;;;-144.12;100.00;72078.50;5029955;28;20044;-67
2024/04/01 00:56:48;;;;;;;11.70;5.10;;;;;;;-144.12;100.00;72078.50;5037729;28;20478;-68
2024/04/01 00:59:15;;;;;;;12.65;4.85;;;;;;;-144.12;100.00;72078.50;5033225;28;20071;-68
2024/04/01 01:01:42;;;;;;;7.55;4.30;;;;;;;-144.12;100.00;72078.50;5033908;28;20037;-68
2024/04/01 01:04:08;;;;;;;10.45;4.82;;;;;;;-144.12;100.00;72078.50;5030918;28;20033;-68
2024/04/01 01:06:37;;;;;;;13.15;4.78;;;;;;;-144.12;100.00;72078.50;5017246;28;20446;-68
2024/04/01 01:09:03;;;;;;;11.98;5.68;;;;;;;-144.12;100.00;72078.50;5031838;28;20032;-67
2024/04/01 01:11:29;;;;;;;9.52;5.05;;;;;;;-144.12;100.00;72078.50;5033285;28;20546;-68
2024/04/01 01:13:55;;;;;;;10.80;5.20;;;;;;;-144.12;100.00;72078.50;5018578;28;20064;-68
2024/04/01 01:16:21;;;;;;;11.27;5.35;;;;;;;-144.12;100.00;72078.50;5043786;28;20069;-68
2024/04/01 01:18:47;;;;;;;8.13;4.57;;;;;;;-144.12;100.00;72078.50;5032859;28;20498;-68
2024/04/01 01:21:12;;;;;;;9.52;4.93;;;;;;;-144.12;100.00;72078.50;5030846;28;20042;-68
2024/04/01 01:23:38;;;;;;;13.68;5.45;;;;;;;-144.12;100.00;72078.50;5046711;28;20061;-69
2024/04/01 01:26:04;;;;;;;14.77;5.25;;;;;;;-144.12;100.00;72078.50;5036912;28;20056;-68
2024/04/01 01:28:30;;;;;;;8.93;5.43;;;;;;;-144.12;100.00;72078.50;5050115;28;20596;-67
2024/04/01 01:30:56;;;;;;;13.68;5.30;;;;;;;-144.12;100.00;72078.50;5014969;28;20033;-68
2024/04/01 01:33:23;;;;;;;10.80;5.38;;;;;;;-144.12;100.00;72078.50;5032539;28;20094;-68
2024/04/01 01:35:49;;;;;;;12.38;4.95;;;;;;;-144.12;100.00;72078.50;5042326;28;20447;-68
2024/04/01 01:38:15;;;;;;;12.73;5.95;;;;;;;-144.12;100.00;72078.50;5007876;28;20159;-68
2024/04/01 01:40:40;;;;;;;8.63;4.40;;;;;;;-144.12;100.00;72078.50;5039808;28;20056;-69
2024/04/01 01:43:06;;;;;;;11.93;5.63;;;;;;;-144.12;100.00;72078.50;5034756;28;20506;-68
2024/04/01 01:45:32;;;;;;;13.85;6.03;;;;;;;-144.12;100.00;72078.50;5052178;28;20036;-68
2024/04/01 01:47:57;;;;;;;11.65;5.88;;;;;;;-144.12;100.00;72078.50;5033404;28;20182;-67
2024/04/01 01:50:23;;;;;;;11.93;5.45;;;;;;;-144.12;100.00;72078.50;5017786;28;20079;-67
2024/04/01 01:52:49;;;;;;;11.02;5.05;;;;;;;-144.12;100.00;72078.50;5032912;28;20433;-68
2024/04/01 01:55:15;;;;;;;10.52;5.53;;;;;;;-144.12;100.00;72078.50;5041279;28;20037;-68
2024/04/01 01:57:41;;;;;;;15.30;6.38;;;;;;;-144.12;100.00;72078.50;5050620;28;20396;-68
2024/04/01 02:00:13;;;;;;;13.40;5.18;;;;;;;-144.12;100.00;72078.50;5049203;28;20407;-68
2024/04/01 02:02:43;;;;;;;19.73;6.10;;;;;;;-144.12;100.00;72078.50;5031408;28;20108;-68
2024/04/01 02:05:09;;;;;;;13.07;5.22;;;;;;;-144.12;100.00;72078.50;5047048;28;20061;-68
2024/04/01 02:07:35;;;;;;;13.50;5.50;;;;;;;-144.12;100.00;72078.50;5040115;28;20116;-67
2024/04/01 02:10:02;;;;;;;12.77;5.85;;;;;;;-144.12;100.00;72078.50;5029376;28;20527;-68
2024/04/01 02:12:27;;;;;;;20.17;6.32;;;;;;;-144.12;100.00;72078.50;5032756;28;20041;-68
2024/04/01 02:14:53;;;;;;;16.85;5.70;;;;;;;-144.12;100.00;72078.50;5046712;28;20033;-68
2024/04/01 02:17:19;;;;;;;9.10;5.15;;;;;;;-144.12;100.00;72078.50;5046828;28;20049;-68
2024/04/01 02:19:47;;;;;;;10.20;4.68;;;;;;;-144.12;100.00;72078.50;5042896;28;20033;-68
2024/04/01 02:22:14;;;;;;;12.32;5.35;;;;;;;-144.12;100.00;72078.50;5042394;28;20045;-68
2024/04/01 02:24:40;;;;;;;12.02;6.13;;;;;;;-144.12;100.00;72078.50;5015162;28;20092;-68
2024/04/01 02:27:07;;;;;;;10.00;5.28;;;;;;;-144.12;100.00;72078.50;5045394;28;20094;-68
2024/04/01 02:29:34;;;;;;;12.30;5.20;;;;;;;-144.12;100.00;72078.50;5042682;28;20036;-67
2024/04/01 02:32:01;;;;;;;11.93;4.95;;;;;;;-144.12;100.00;72078.50;5013762;28;20152;-69
2024/04/01 02:34:27;;;;;;;11.80;5.88;;;;;;;-144.12;100.00;72078.50;5063027;28;20057;-67
2024/04/01 02:36:54;;;;;;;12.65;6.07;;;;;;;-144.12;100.00;72078.50;5039813;28;20443;-68
2024/04/01 02:39:21;;;;;;;12.38;5.90;;;;;;;-144.12;100.00;72078.50;5029326;28;20040;-67
2024/04/01 02:41:48;;;;;;;10.93;5.40;;;;;;;-144.12;100.00;72078.50;5028694;28;20030;-69
2024/04/01 02:44:14;;;;;;;12.02;5.63;;;;;;;-144.12;100.00;72078.50;5043868;28;20503;-68
2024/04/01 02:46:41;;;;;;;12.90;5.63;;;;;;;-144.12;100.00;72078.50;5031345;28;20079;-67
2024/04/01 02:49:11;;;;;;;12.48;5.97;;;;;;;-144.12;100.00;72078.50;5068752;28;20029;-68
2024/04/01 02:51:37;;;;;;;14.77;6.40;;;;;;;-144.12;100.00;72078.50;5028843;28;20067;-68
2024/04/01 02:54:03;;;;;;;12.77;5.82;;;;;;;-144.12;100.00;72078.50;5032740;28;20053;-68
2024/04/01 02:56:29;;;;;;;12.90;5.88;;;;;;;-144.12;100.00;72078.50;5046068;28;20033;-68
2024/04/01 02:58:55;;;;;;;16.63;5.88;;;;;;;-144.12;100.00;72078.50;5028315;28;20030;-70
2024/04/01 03:01:21;;;;;;;13.43;6.05;;;;;;;-144.12;100.00;72078.50;5026648;28;20022;-67
2024/04/01 03:03:46;;;;;;;10.80;5.93;;;;;;;-144.12;100.00;72078.50;5036908;28;20037;-67
2024/04/01 03:06:13;;;;;;;13.43;5.95;;;;;;;-144.12;100.00;72078.50;5036540;28;20033;-71
2024/04/01 03:08:39;;;;;;;12.35;5.97;;;;;;;-144.12;100.00;72078.50;5023218;28;20442;-68
2024/04/01 03:11:05;;;;;;;12.40;6.15;;;;;;;-144.12;100.00;72078.50;5011937;28;20026;-68
2024/04/01 03:13:30;;;;;;;11.20;4.97;;;;;;;-144.12;100.00;72078.50;5060783;28;20043;-68
2024/04/01 03:15:57;;;;;;;14.30;6.32;;;;;;;-144.12;100.00;72078.50;5029915;28;20021;-67
2024/04/01 03:18:24;;;;;;;13.68;5.72;;;;;;;-144.12;100.00;72078.50;5042727;28;20041;-68
2024/04/01 03:20:52;;;;;;;11.23;5.68;;;;;;;-144.12;100.00;72078.50;5031000;28;20411;-68
2024/04/01 03:23:18;;;;;;;13.57;6.53;;;;;;;-144.12;100.00;72078.50;5043889;28;20040;-68
2024/04/01 03:25:51;;;;;;;15.32;6.43;;;;;;;-144.12;100.00;72078.50;5028186;28;20032;-68
2024/04/01 03:28:20;;;;;;;12.30;6.07;;;;;;;-144.12;100.00;72078.50;5028470;28;20061;-68
2024/04/01 03:30:46;;;;;;;12.30;6.13;;;;;;;-144.12;100.00;72078.50;5025411;28;20154;-68
2024/04/01 03:33:13;;;;;;;14.32;6.38;;;;;;;-144.12;100.00;72078.50;5026856;28;20033;-68
2024/04/01 03:35:42;;;;;;;17.70;6.35;;;;;;;-144.12;100.00;72078.50;5031737;28;20033;-69
2024/04/01 03:38:08;;;;;;;13.85;5.88;;;;;;;-144.12;100.00;72078.50;5059862;28;20052;-68
2024/04/01 03:40:41;;;;;;;14.45;5.75;;;;;;;-144.12;100.00;72078.50;5023021;28;20215;-68
2024/04/01 03:43:08;;;;;;;11.40;5.63;;;;;;;-144.12;100.00;72078.50;5032901;28;20037;-68
2024/04/01 03:45:34;;;;;;;12.13;5.43;;;;;;;-144.12;100.00;72078.50;5023842;28;20104;-68
2024/04/01 03:48:00;;;;;;;16.77;6.03;;;;;;;-144.12;100.00;72078.50;5030311;28;20108;-68
2024/04/01 03:50:25;;;;;;;15.05;6.38;;;;;;;-144.12;100.00;72078.50;5028691;28;20039;-68
2024/04/01 03:52:54;;;;;;;10.75;5.07;;;;;;;-144.12;100.00;72078.50;5029072;28;20406;-67
2024/04/01 03:55:20;;;;;;;13.55;5.97;;;;;;;-144.12;100.00;72078.50;5031390;28;20045;-68
2024/04/01 03:57:46;;;;;;;15.15;6.25;;;;;;;-144.12;100.00;72078.50;5030109;28;20030;-68
2024/04/01 04:00:13;;;;;;;12.73;6.97;;;;;;;-144.12;100.00;72078.50;5012606;28;20040;-68
2024/04/01 04:02:42;;;;;;;13.45;5.88;;;;;;;-144.12;100.00;72078.50;5034124;28;20044;-68
2024/04/01 04:05:09;;;;;;;15.13;5.53;;;;;;;-144.12;100.00;72078.50;5040760;28;20042;-68
2024/04/01 04:07:36;;;;;;;14.98;6.30;;;;;;;-144.12;100.00;72078.50;5030333;28;20101;-68
2024/04/01 04:10:04;;;;;;;12.38;6.40;;;;;;;-144.12;100.00;72078.50;5018690;28;20037;-68
2024/04/01 04:12:32;;;;;;;12.57;5.88;;;;;;;-144.12;100.00;72078.50;5050008;28;20506;-68
2024/04/01 04:15:03;;;;;;;13.45;6.68;;;;;;;-144.12;100.00;72078.50;5033604;28;20057;-69
2024/04/01 04:17:29;;;;;;;14.30;6.22;;;;;;;-144.12;100.00;72078.50;5016905;28;20048;-68
2024/04/01 04:19:54;;;;;;;15.80;6.53;;;;;;;-144.12;100.00;72078.50;5038038;28;20041;-68
2024/04/01 04:22:21;;;;;;;16.20;6.68;;;;;;;-144.12;100.00;72078.50;5031775;28;20491;-67
2024/04/01 04:24:47;;;;;;;14.75;7.32;;;;;;;-144.12;100.00;72078.50;5057473;28;20033;-67
2024/04/01 04:27:12;;;;;;;14.73;7.25;;;;;;;-144.12;100.00;72078.50;5071607;28;20108;-68
2024/04/01 04:29:38;;;;;;;16.17;7.15;;;;;;;-144.12;100.00;72078.50;5048584;28;20045;-68
2024/04/01 04:32:13;;;;;;;17.42;6.72;;;;;;;-144.12;100.00;72078.50;5031611;28;20041;-68
2024/04/01 04:34:39;;;;;;;14.40;6.72;;;;;;;-144.12;100.00;72078.50;5071904;28;20036;-68
2024/04/01 04:37:06;;;;;;;11.95;6.10;;;;;;;-144.12;100.00;72078.50;5033964;28;20024;-68
2024/04/01 04:39:35;;;;;;;12.25;6.25;;;;;;;-144.12;100.00;72078.50;5029578;28;20037;-68
2024/04/01 04:42:02;;;;;;;15.45;6.97;;;;;;;-144.12;100.00;72078.50;5030269;28;20041;-68
2024/04/01 04:44:28;;;;;;;11.05;6.32;;;;;;;-144.12;100.00;72078.50;5046453;28;20029;-67
2024/04/01 04:46:53;;;;;;;13.23;6.70;;;;;;;-144.12;100.00;72078.50;5042655;28;20506;-68
2024/04/01 04:49:19;;;;;;;16.65;6.70;;;;;;;-144.12;100.00;72078.50;5020137;28;20103;-67
2024/04/01 04:51:45;;;;;;;13.82;6.93;;;;;;;-144.12;100.00;72078.50;5035820;28;20025;-68
2024/04/01 04:54:11;;;;;;;14.43;6.93;;;;;;;-144.12;100.00;72078.50;5033217;28;20033;-69
2024/04/01 04:56:36;;;;;;;16.25;6.05;;;;;;;-144.12;100.00;72078.50;5023924;28;20045;-68
2024/04/01 04:59:03;;;;;;;13.60;6.57;;;;;;;-144.12;100.00;72078.50;5038334;28;20061;-69
2024/04/01 05:01:31;;;;;;;13.70;5.82;;;;;;;-144.12;100.00;72078.50;5016799;28;20124;-68
2024/04/01 05:03:57;;;;;;;19.80;7.03;;;;;;;-144.12;100.00;72078.50;5037988;28;20025;-68
2024/04/01 05:06:23;;;;;;;12.93;5.78;;;;;;;-144.12;100.00;72078.50;5038212;28;20394;-68
2024/04/01 05:08:48;;;;;;;13.68;6.60;;;;;;;-144.12;100.00;72078.50;5037969;28;20024;-68
2024/04/01 05:11:14;;;;;;;12.55;6.38;;;;;;;-144.12;100.00;72078.50;5067556;28;20030;-68
2024/04/01 05:13:40;;;;;;;16.98;6.68;;;;;;;-144.12;100.00;72078.50;5034550;28;20025;-68
2024/04/01 05:16:06;;;;;;;15.38;5.78;;;;;;;-144.12;100.00;72078.50;5031307;28;20028;-69
2024/04/01 05:18:33;;;;;;;17.30;7.07;;;;;;;-144.12;100.00;72078.50;5048787;28;20040;-68
2024/04/01 05:20:59;;;;;;;12.68;5.97;;;;;;;-144.12;100.00;72078.50;5045116;28;20430;-68
2024/04/01 05:23:25;;;;;;;14.20;6.68;;;;;;;-144.12;100.00;72078.50;5046708;28;20483;-68
2024/04/01 05:25:50;;;;;;;15.70;6.45;;;;;;;-144.12;100.00;72078.50;5050881;28;20036;-68
2024/04/01 05:28:16;;;;;;;14.85;6.53;;;;;;;-144.12;100.00;72078.50;5026643;28;20613;-67
2024/04/01 05:30:41;;;;;;;14.45;6.05;;;;;;;-144.12;100.00;72078.50;5040252;28;20025;-68
2024/04/01 05:33:07;;;;;;;14.65;6.60;;;;;;;-144.12;100.00;72078.50;5008876;28;20037;-69
2024/04/01 05:35:36;;;;;;;13.82;5.85;;;;;;;-144.12;100.00;72078.50;5034551;28;20060;-68
2024/04/01 05:38:03;;;;;;;10.82;5.90;;;;;;;-144.12;100.00;72078.50;5030371;28;20036;-68
2024/04/01 05:40:28;;;;;;;14.90;7.05;;;;;;;-144.12;100.00;72078.50;5032021;28;20042;-67
2024/04/01 05:42:55;;;;;;;13.73;6.78;;;;;;;-144.12;100.00;72078.50;5010583;28;20052;-68
2024/04/01 05:45:20;;;;;;;16.33;6.65;;;;;;;-144.12;100.00;72078.50;5045442;28;20041;-67
2024/04/01 05:47:48;;;;;;;15.80;7.20;;;;;;;-144.12;100.00;72078.50;5031215;28;20034;-68
2024/04/01 05:50:20;;;;;;;11.85;6.97;;;;;;;-144.12;100.00;72078.50;5036159;28;20043;-68
2024/04/01 05:52:46;;;;;;;14.05;7.00;;;;;;;-144.12;100.00;72078.50;5031903;28;20040;-67
2024/04/01 05:55:12;;;;;;;16.00;6.68;;;;;;;-144.12;100.00;72078.50;5046816;28;20033;-68
2024/04/01 05:57:39;;;;;;;15.43;7.35;;;;;;;-144.12;100.00;72078.50;5016302;28;20029;-68
2024/04/01 06:00:06;;;;;;;11.00;6.53;;;;;;;-144.12;100.00;72078.50;5064096;28;20029;-68
2024/04/01 06:02:37;;;;;;;14.45;6.45;;;;;;;-144.12;100.00;72078.50;5030520;28;20044;-68
2024/04/01 06:05:03;;;;;;;16.73;6.72;;;;;;;-144.12;100.00;72078.50;5014951;28;20069;-68
2024/04/01 06:07:29;;;;;;;17.42;7.25;;;;;;;-144.12;100.00;72078.50;5049442;28;20022;-67
2024/04/01 06:09:58;;;;;;;11.38;6.13;;;;;;;-144.12;100.00;72078.50;5030259;28;20567;-68
2024/04/01 06:12:24;;;;;;;14.70;6.45;;;;;;;-144.12;100.00;72078.50;5033017;28;20079;-68
2024/04/01 06:14:50;;;;;;;16.75;6.88;;;;;;;-144.12;100.00;72078.50;5029481;28;20033;-69
2024/04/01 06:17:18;;;;;;;16.92;7.60;;;;;;;-144.12;100.00;72078.50;5062953;28;20083;-68
2024/04/01 06:19:45;;;;;;;16.40;7.53;;;;;;;-144.12;100.00;72078.50;5063113;28;20029;-67
2024/04/01 06:22:10;;;;;;;12.88;6.75;;;;;;;-144.12;100.00;72078.50;5053116;28;20581;-68
2024/04/01 06:24:39;;;;;;;14.65;7.80;;;;;;;-144.12;100.00;72078.50;5032483;28;20525;-70
2024/04/01 06:27:06;;;;;;;16.15;6.65;;;;;;;-144.12;100.00;72078.50;5040009;28;20033;-67
2024/04/01 06:29:33;;;;;;;17.40;7.30;;;;;;;-144.12;100.00;72078.50;5036014;28;20112;-68
2024/04/01 06:31:58;;;;;;;15.35;6.65;;;;;;;-144.12;100.00;72078.50;5028979;28;20129;-68
2024/04/01 06:34:24;;;;;;;12.27;6.18;;;;;;;-144.12;100.00;72078.50;5042774;28;20128;-68
2024/04/01 06:36:50;;;;;;;12.77;6.97;;;;;;;-144.12;100.00;72078.50;5024596;28;20045;-68
2024/04/01 06:39:16;;;;;;;13.98;7.03;;;;;;;-144.12;100.00;72078.50;5039154;28;20095;-68
2024/04/01 06:41:42;;;;;;;15.38;7.28;;;;;;;-144.12;100.00;72078.50;5062751;28;20042;-68
2024/04/01 06:44:08;;;;;;;14.82;7.32;;;;;;;-144.12;100.00;72078.50;5012708;28;20033;-68
2024/04/01 06:46:33;;;;;;;13.50;7.25;;;;;;;-144.12;100.00;72078.50;5032900;28;20041;-68
2024/04/01 06:48:59;;;;;;;14.88;6.60;;;;;;;-144.12;100.00;72078.50;5036161;28;20029;-68
2024/04/01 06:51:25;;;;;;;12.80;6.68;;;;;;;-144.12;100.00;72078.50;5049500;28;20441;-68
2024/04/01 06:53:50;;;;;;;12.52;6.88;;;;;;;-144.12;100.00;72078.50;5049684;28;20062;-68
2024/04/01 06:56:16;;;;;;;16.30;6.75;;;;;;;-144.12;100.00;72078.50;5066844;28;20038;-68
2024/04/01 06:58:41;;;;;;;16.05;7.43;;;;;;;-144.12;100.00;72078.50;5032200;28;20063;-68
2024/04/01 07:01:07;;;;;;;14.70;7.10;;;;;;;-144.12;100.00;72078.50;5027095;28;20044;-68
2024/04/01 07:03:33;;;;;;;11.68;6.53;;;;;;;-144.12;100.00;72078.50;5047590;28;20030;-68
2024/04/01 07:05:59;;;;;;;18.35;7.95;;;;;;;-144.12;100.00;72078.50;5042475;28;20447;-68
2024/04/01 07:08:25;;;;;;;15.95;7.38;;;;;;;-144.12;100.00;72078.50;5031525;28;20033;-68
2024/04/01 07:10:50;;;;;;;14.57;6.97;;;;;;;-144.12;100.00;72078.50;5032209;28;20022;-68
2024/04/01 07:13:16;;;;;;;15.48;7.38;;;;;;;-144.12;100.00;72078.50;5037313;28;20036;-68
2024/04/01 07:15:42;;;;;;;15.20;6.63;;;;;;;-144.12;100.00;72078.50;5023077;28;20063;-67
2024/04/01 07:18:07;;;;;;;17.00;7.13;;;;;;;-144.12;100.00;72078.50;5029122;28;20037;-68
2024/04/01 07:20:33;;;;;;;26.45;8.32;;;;;;;-144.12;100.00;72078.50;5038520;28;20028;-69
2024/04/01 07:22:58;;;;;;;14.77;7.43;;;;;;;-144.12;100.00;72078.50;5035104;28;20448;-69
2024/04/01 07:25:24;;;;;;;14.93;7.20;;;;;;;-144.12;100.00;72078.50;5065928;28;20387;-68
2024/04/01 07:27:49;;;;;;;19.40;7.15;;;;;;;-144.12;100.00;72078.50;5023855;28;20049;-68
2024/04/01 07:30:15;;;;;;;18.05;8.65;;;;;;;-144.12;100.00;72078.50;5060037;28;20084;-67
2024/04/01 07:32:41;;;;;;;14.25;7.22;;;;;;;-144.12;100.00;72078.50;5062478;28;20033;-68
2024/04/01 07:35:06;;;;;;;16.23;8.18;;;;;;;-144.12;100.00;72078.50;5030808;28;20132;-68
2024/04/01 07:37:32;;;;;;;16.75;7.63;;;;;;;-144.12;100.00;72078.50;5029393;28;20063;-67
2024/04/01 07:39:58;;;;;;;18.95;7.78;;;;;;;-144.12;100.00;72078.50;5063071;28;20049;-67
2024/04/01 07:42:24;;;;;;;22.15;8.50;;;;;;;-144.12;100.00;72078.50;5028196;28;20032;-68
2024/04/01 07:44:50;;;;;;;17.08;7.95;;;;;;;-144.12;100.00;72078.50;5028864;28;20028;-67
2024/04/01 07:47:16;;;;;;;16.23;8.32;;;;;;;-144.12;100.00;72078.50;5063357;28;20028;-67
2024/04/01 07:49:41;;;;;;;19.20;8.73;;;;;;;-144.12;100.00;72078.50;5031497;28;20410;-68
2024/04/01 07:52:09;;;;;;;20.02;9.43;;;;;;;-144.12;100.00;72078.50;5040000;28;20022;-68
2024/04/01 07:54:35;;;;;;;18.15;8.45;;;;;;;-144.12;100.00;72078.50;5029505;28;20026;-68
2024/04/01 07:57:02;;;;;;;17.55;8.35;;;;;;;-144.12;100.00;72078.50;5033646;28;20067;-68
2024/04/01 07:59:31;;;;;;;18.95;8.32;;;;;;;-144.12;100.00;72078.50;5031719;28;20064;-68
2024/04/01 08:01:57;;;;;;;16.67;7.97;;;;;;;-144.12;100.00;72078.50;5045739;28;20061;-68
2024/04/01 08:04:27;;;;;;;21.13;8.73;;;;;;;-144.12;100.00;72078.50;5028677;28;20146;-68
2024/04/01 08:06:53;;;;;;;20.00;9.30;;;;;;;-144.12;100.00;72078.50;5039520;28;20030;-71
2024/04/01 08:09:19;;;;;;;19.85;8.80;;;;;;;-144.12;100.00;72078.50;5048138;28;20461;-68
2024/04/01 08:11:49;;;;;;;18.30;7.88;;;;;;;-144.12;100.00;72078.50;5048730;28;20017;-67
2024/04/01 08:14:17;;;;;;;17.42;7.68;;;;;;;-144.12;100.00;72078.50;5030444;28;20056;-68
2024/04/01 08:16:42;;;;;;;20.42;9.60;;;;;;;-144.12;100.00;72078.50;5028225;28;20498;-68
2024/04/01 08:19:08;;;;;;;24.00;9.82;;;;;;;-144.12;100.00;72078.50;5059873;28;20090;-68
2024/04/01 08:21:34;;;;;;;21.75;8.50;;;;;;;-144.12;100.00;72078.50;5013907;28;20022;-67
2024/04/01 08:24:00;;;;;;;19.60;9.23;;;;;;;-144.12;100.00;72078.50;5023510;28;20038;-68
2024/04/01 08:26:25;;;;;;;24.45;9.38;;;;;;;-144.12;100.00;72078.50;5031940;28;20087;-68
2024/04/01 08:28:51;;;;;;;20.27;8.63;;;;;;;-144.12;100.00;72078.50;5022942;28;20040;-67
2024/04/01 08:31:17;;;;;;;17.77;8.20;;;;;;;-144.12;100.00;72078.50;5045277;28;20155;-68
2024/04/01 08:33:43;;;;;;;15.75;8.30;;;;;;;-144.12;100.00;72078.50;5044292;28;20116;-69
2024/04/01 08:36:09;;;;;;;16.58;7.53;;;;;;;-144.12;100.00;72078.50;5028022;28;20048;-69
2024/04/01 08:38:36;;;;;;;15.70;8.43;;;;;;;-144.12;100.00;72078.50;5046392;28;20032;-68
2024/04/01 08:41:10;;;;;;;19.35;8.27;;;;;;;-144.12;100.00;72078.50;5046339;28;20036;-69
2024/04/01 08:43:40;;;;;;;16.55;8.15;;;;;;;-144.12;100.00;72078.50;5026277;28;20038;-68
2024/04/01 08:46:06;;;;;;;17.50;8.80;;;;;;;-144.12;100.00;72078.50;5030039;28;20489;-69
2024/04/01 08:48:32;;;;;;;17.08;8.93;;;;;;;-144.12;100.00;72078.50;5035373;28;20148;-69
2024/04/01 08:51:03;;;;;;;17.83;8.10;;;;;;;-144.12;100.00;72078.50;5061467;28;20162;-68
2024/04/01 08:53:52;;;;;;;17.98;8.13;;;;;;;-144.12;100.00;72078.50;5046554;28;20033;-68
2024/04/01 08:56:19;;;;;;;21.40;9.05;;;;;;;-144.12;100.00;72078.50;5029922;28;20697;-68
2024/04/01 08:58:45;;;;;;;20.88;9.77;;;;;;;-144.12;100.00;72078.50;5031281;28;20078;-68
2024/04/01 09:01:11;;;;;;;18.25;8.52;;;;;;;-144.12;100.00;72078.50;5030656;28;20029;-68
2024/04/01 09:03:37;;;;;;;19.75;8.07;;;;;;;-144.12;100.00;72078.50;5031929;28;20026;-69
2024/04/01 09:06:04;;;;;;;22.30;10.25;;;;;;;-144.12;100.00;72078.50;5032001;28;20056;-68
2024/04/01 09:08:30;;;;;;;23.00;9.32;;;;;;;-144.12;100.00;72078.50;5030372;28;20034;-68
2024/04/01 09:10:56;;;;;;;17.58;8.48;;;;;;;-144.12;100.00;72078.50;5031498;28;20013;-68
2024/04/01 09:13:22;;;;;;;16.33;7.82;;;;;;;-144.12;100.00;72078.50;5024672;28;20039;-68
2024/04/01 09:15:48;;;;;;;18.38;8.63;;;;;;;-144.12;100.00;72078.50;5034507;28;20587;-68
2024/04/01 09:18:14;;;;;;;18.13;8.45;;;;;;;-144.12;100.00;72078.50;5030846;28;20033;-68
2024/04/01 09:20:41;;;;;;;23.77;9.32;;;;;;;-144.12;100.00;72078.50;5032800;28;20037;-69
2024/04/01 09:23:07;;;;;;;21.10;9.20;;;;;;;-144.12;100.00;72078.50;5028418;28;20505;-68
2024/04/01 09:25:33;;;;;;;21.88;9.25;;;;;;;-144.12;100.00;72078.50;5049185;28;20103;-68
2024/04/01 09:27:58;;;;;;;19.35;8.93;;;;;;;-144.12;100.00;72078.50;5066930;28;20033;-68
2024/04/01 09:30:24;;;;;;;18.42;8.32;;;;;;;-144.12;100.00;72078.50;5033517;28;20037;-68
2024/04/01 09:32:50;;;;;;;20.67;8.85;;;;;;;-144.12;100.00;72078.50;5047733;28;20075;-68
2024/04/01 09:35:16;;;;;;;20.15;8.48;;;;;;;-144.12;100.00;72078.50;5035724;28;20037;-69
2024/04/01 09:37:42;;;;;;;17.30;8.27;;;;;;;-144.12;100.00;72078.50;5031320;28;20037;-68
2024/04/01 09:40:09;;;;;;;20.50;9.48;;;;;;;-144.12;100.00;72078.50;5049636;28;20059;-68
2024/04/01 09:42:35;;;;;;;19.35;8.45;;;;;;;-144.12;100.00;72078.50;5029769;28;20030;-68
2024/04/01 09:45:07;;;;;;;18.63;8.77;;;;;;;-144.12;100.00;72078.50;5032887;28;20061;-72
2024/04/01 09:47:37;;;;;;;19.25;8.13;;;;;;;-144.12;100.00;72078.50;5029314;28;20123;-68
2024/04/01 09:50:07;;;;;;;16.58;7.63;;;;;;;-144.12;100.00;72078.50;5030263;28;20044;-70
2024/04/01 09:52:36;;;;;;;17.55;7.85;;;;;;;-144.12;100.00;72078.50;5035267;28;20024;-68
2024/04/01 09:55:09;;;;;;;22.13;9.18;;;;;;;-144.12;100.00;72078.50;5031767;28;20115;-68
2024/04/01 09:58:24;;;;;;;20.02;8.85;;;;;;;-144.12;100.00;72078.50;5036294;28;20029;-68
2024/04/01 10:01:22;;;;;;;16.10;7.38;;;;;;;-144.12;100.00;72078.50;5030227;28;20144;-68
2024/04/01 10:04:22;;;;;;;15.88;6.85;;;;;;;-144.12;100.00;72078.50;5045078;28;20116;-68
2024/04/01 10:07:13;;;;;;;18.23;8.82;;;;;;;-144.12;100.00;72078.50;5043353;28;20571;-69
2024/04/01 10:10:14;;;;;;;20.75;8.85;;;;;;;-144.12;100.00;72078.50;5045388;28;20351;-68
2024/04/01 10:12:58;;;;;;;19.42;8.20;;;;;;;-144.12;100.00;72078.50;5033535;28;20045;-67
2024/04/01 10:16:09;;;;;;;20.35;8.43;;;;;;;-144.12;100.00;72078.50;5028917;28;20406;-69
2024/04/01 10:18:46;;;;;;;16.75;7.82;;;;;;;-144.12;100.00;72078.50;5037828;28;20037;-68
2024/04/01 10:21:48;;;;;;;16.40;8.00;;;;;;;-144.12;100.00;72078.50;5060543;28;20041;-68
2024/04/01 10:24:30;;;;;;;20.25;8.50;;;;;;;-144.12;100.00;72078.50;5029014;28;20514;-67
2024/04/01 10:27:17;;;;;;;17.48;7.82;;;;;;;-144.12;100.00;72078.50;5026548;28;20117;-67
2024/04/01 10:30:40;;;;;;;14.40;7.32;;;;;;;-144.12;100.00;72078.50;5060133;28;20040;-68
2024/04/01 10:33:41;;;;;;;24.85;7.75;;;;;;;-144.12;100.00;72078.50;5006658;28;20062;-67
2024/04/01 10:36:16;;;;;;;16.83;7.95;;;;;;;-144.12;100.00;72078.50;4995368;28;20087;-68
2024/04/01 10:38:56;;;;;;;16.50;7.38;;;;;;;-144.12;100.00;72078.50;5019668;28;20099;-69
2024/04/01 10:41:48;;;;;;;16.58;7.93;;;;;;;-144.12;100.00;72078.50;5044996;28;20041;-69
2024/04/01 10:44:26;;;;;;;15.20;6.80;;;;;;;-144.12;100.00;72078.50;5028040;28;20183;-67
2024/04/01 10:47:28;;;;;;;18.02;7.93;;;;;;;-144.12;100.00;72078.50;5032655;28;20116;-67
2024/04/01 10:50:03;;;;;;;20.27;7.72;;;;;;;-144.12;100.00;72078.50;5025716;28;20064;-67
2024/04/01 10:53:00;;;;;;;15.35;7.53;;;;;;;-144.12;100.00;72078.50;5040902;28;20448;-67
2024/04/01 10:55:48;;;;;;;14.88;6.68;;;;;;;-144.12;100.00;72078.50;5045796;28;20033;-67
2024/04/01 10:58:57;;;;;;;14.18;7.30;;;;;;;-144.12;100.00;72078.50;5009553;28;20038;-68
2024/04/01 11:01:52;;;;;;;17.67;7.43;;;;;;;-144.12;100.00;72078.50;5007958;28;20037;-68
2024/04/01 11:04:47;;;;;;;15.38;7.03;;;;;;;-144.12;100.00;72078.50;5028276;28;20141;-68
2024/04/01 11:07:44;;;;;;;16.38;7.28;;;;;;;-144.12;100.00;72078.50;5031363;28;20525;-68
2024/04/01 11:10:38;;;;;;;14.15;7.43;;;;;;;-144.12;100.00;72078.50;5026163;28;20075;-69